createdAt,value
2023-04-15T00:01:12.236Z,3.28
2023-04-15T00:03:39.190Z,3.55
2023-04-15T00:06:06.188Z,3.70
2023-04-15T00:08:33.318Z,3.40
2023-04-15T00:11:05.864Z,4.50
2023-04-15T00:13:34.173Z,2.70
2023-04-15T00:16:01.586Z,3.42
2023-04-15T00:18:29.660Z,2.75
2023-04-15T00:20:56.829Z,3.28
2023-04-15T00:23:23.549Z,3.40
2023-04-15T00:25:50.032Z,3.50
2023-04-15T00:28:16.740Z,3.55
2023-04-15T00:30:43.464Z,2.65
2023-04-15T00:33:10.674Z,3.40
2023-04-15T00:35:37.585Z,3.03
2023-04-15T00:38:04.859Z,3.15
2023-04-15T00:40:31.436Z,3.58
2023-04-15T00:42:58.028Z,6.22
2023-04-15T00:45:24.721Z,6.32
2023-04-15T00:47:52.029Z,3.25
2023-04-15T00:50:18.638Z,5.30
2023-04-15T00:52:45.655Z,2.65
2023-04-15T00:55:12.177Z,2.40
2023-04-15T00:57:39.435Z,3.08
2023-04-15T01:00:08.050Z,3.08
2023-04-15T01:02:35.256Z,4.03
2023-04-15T01:05:02.335Z,3.25
2023-04-15T01:07:28.804Z,3.35
2023-04-15T01:09:55.656Z,3.95
2023-04-15T01:12:22.854Z,2.95
2023-04-15T01:14:49.352Z,4.97
2023-04-15T01:17:16.076Z,5.90
2023-04-15T01:19:42.750Z,2.40
2023-04-15T01:22:09.534Z,2.75
2023-04-15T01:24:38.446Z,2.97
2023-04-15T01:27:05.386Z,3.13
2023-04-15T01:29:32.751Z,2.78
2023-04-15T01:31:59.488Z,5.03
2023-04-15T01:34:27.148Z,4.03
2023-04-15T01:36:54.364Z,2.15
2023-04-15T01:39:21.903Z,2.72
2023-04-15T01:41:48.705Z,2.22
2023-04-15T01:44:16.470Z,2.33
2023-04-15T01:46:43.171Z,3.97
2023-04-15T01:49:09.771Z,2.95
2023-04-15T01:51:36.372Z,6.50
2023-04-15T01:54:02.931Z,5.13
2023-04-15T01:56:30.023Z,3.20
2023-04-15T01:58:57.049Z,4.22
2023-04-15T02:01:23.744Z,3.92
2023-04-15T02:03:50.696Z,5.10
2023-04-15T02:06:18.389Z,3.00
2023-04-15T02:08:45.221Z,3.22
2023-04-15T02:11:11.911Z,3.13
2023-04-15T02:13:38.591Z,5.32
2023-04-15T02:16:15.167Z,4.55
2023-04-15T02:18:44.384Z,4.38
2023-04-15T02:21:10.907Z,3.85
2023-04-15T02:23:38.160Z,4.32
2023-04-15T02:26:04.660Z,5.60
2023-04-15T02:28:31.638Z,4.38
2023-04-15T02:33:26.560Z,6.95
2023-04-15T02:35:53.290Z,5.20
2023-04-15T02:38:20.088Z,5.70
2023-04-15T02:40:49.720Z,4.63
2023-04-15T02:43:17.314Z,5.55
2023-04-15T02:45:44.218Z,3.92
2023-04-15T02:48:11.119Z,4.57
2023-04-15T02:50:39.862Z,6.05
2023-04-15T02:53:07.493Z,7.63
2023-04-15T02:55:34.236Z,7.50
2023-04-15T02:58:01.284Z,5.82
2023-04-15T03:00:28.342Z,7.95
2023-04-15T03:02:58.738Z,8.15
2023-04-15T03:05:25.783Z,8.70
2023-04-15T03:07:52.360Z,8.75
2023-04-15T03:10:20.073Z,8.73
2023-04-15T03:12:46.998Z,10.73
2023-04-15T03:15:17.868Z,9.15
2023-04-15T03:17:49.650Z,11.05
2023-04-15T03:20:17.077Z,13.77
2023-04-15T03:22:43.827Z,13.05
2023-04-15T03:25:10.860Z,13.80
2023-04-15T03:27:38.308Z,13.02
2023-04-15T03:30:06.768Z,14.13
2023-04-15T03:32:36.444Z,14.82
2023-04-15T03:35:03.000Z,14.73
2023-04-15T03:37:29.585Z,17.42
2023-04-15T03:39:56.536Z,16.77
2023-04-15T03:42:24.106Z,17.63
2023-04-15T03:44:51.010Z,14.20
2023-04-15T03:47:17.654Z,15.80
2023-04-15T03:49:44.214Z,15.43
2023-04-15T03:52:10.737Z,19.35
2023-04-15T03:54:37.276Z,17.73
2023-04-15T03:57:03.791Z,16.55
2023-04-15T03:59:30.624Z,21.23
2023-04-15T04:01:57.233Z,13.52
2023-04-15T04:04:24.001Z,15.65
2023-04-15T04:06:50.748Z,15.27
2023-04-15T04:09:17.308Z,12.52
2023-04-15T04:11:45.542Z,16.00
2023-04-15T04:14:12.211Z,14.73
2023-04-15T04:16:38.923Z,16.67
2023-04-15T04:19:05.501Z,16.02
2023-04-15T04:21:34.144Z,13.00
2023-04-15T04:24:00.815Z,11.38
2023-04-15T04:26:27.560Z,11.27
2023-04-15T04:28:54.134Z,12.45
2023-04-15T04:31:20.656Z,11.95
2023-04-15T04:33:47.256Z,12.05
2023-04-15T04:36:13.927Z,9.43
2023-04-15T04:38:40.648Z,8.85
2023-04-15T04:41:07.138Z,9.52
2023-04-15T04:43:33.653Z,11.88
2023-04-15T04:46:00.216Z,11.48
2023-04-15T04:48:27.261Z,9.55
2023-04-15T04:50:53.825Z,8.93
2023-04-15T04:53:20.534Z,6.82
2023-04-15T04:55:47.010Z,7.80
2023-04-15T04:58:13.773Z,7.15
2023-04-15T05:00:40.771Z,5.75
2023-04-15T05:03:07.549Z,8.00
2023-04-15T05:05:37.135Z,5.47
2023-04-15T05:08:03.832Z,5.15
2023-04-15T05:10:30.541Z,8.10
2023-04-15T05:12:57.649Z,8.27
2023-04-15T05:15:24.656Z,6.82
2023-04-15T05:17:51.752Z,7.43
2023-04-15T05:20:18.457Z,8.75
2023-04-15T05:22:45.344Z,8.85
2023-04-15T05:25:12.429Z,8.20
2023-04-15T05:27:38.944Z,9.95
2023-04-15T05:30:05.849Z,10.18
2023-04-15T05:32:32.546Z,10.38
2023-04-15T05:34:59.197Z,8.32
2023-04-15T05:37:26.251Z,5.47
2023-04-15T05:39:52.850Z,5.22
2023-04-15T05:42:19.493Z,6.18
2023-04-15T05:44:46.099Z,7.18
2023-04-15T05:47:13.107Z,8.10
2023-04-15T05:49:42.716Z,4.60
2023-04-15T05:52:09.275Z,5.65
2023-04-15T05:54:36.623Z,6.03
2023-04-15T05:57:04.074Z,4.20
2023-04-15T05:59:31.078Z,5.68
2023-04-15T06:02:01.703Z,4.03
2023-04-15T06:04:28.575Z,4.13
2023-04-15T06:06:55.457Z,8.82
2023-04-15T06:09:22.031Z,11.43
2023-04-15T06:11:48.695Z,11.13
2023-04-15T06:14:15.257Z,13.63
2023-04-15T06:16:42.520Z,11.10
2023-04-15T06:19:09.427Z,11.75
2023-04-15T06:21:36.111Z,15.75
2023-04-15T06:24:03.427Z,13.02
2023-04-15T06:26:29.964Z,14.05
2023-04-15T06:28:56.547Z,12.10
2023-04-15T06:31:23.102Z,14.07
2023-04-15T06:33:49.762Z,14.07
2023-04-15T06:36:16.507Z,12.32
2023-04-15T06:38:43.109Z,13.50
2023-04-15T06:41:09.799Z,10.77
2023-04-15T06:43:36.457Z,12.77
2023-04-15T06:46:03.014Z,11.48
2023-04-15T06:48:29.591Z,12.68
2023-04-15T06:50:56.661Z,12.65
2023-04-15T06:53:23.228Z,11.38
2023-04-15T06:55:49.865Z,12.25
2023-04-15T06:58:17.176Z,15.55
2023-04-15T07:00:43.757Z,13.70
2023-04-15T07:03:11.327Z,13.57
2023-04-15T07:05:38.562Z,14.48
2023-04-15T07:08:05.584Z,14.07
2023-04-15T07:10:33.476Z,9.90
2023-04-15T07:13:00.043Z,11.32
2023-04-15T07:15:26.575Z,12.07
2023-04-15T07:17:53.320Z,11.75
2023-04-15T07:20:19.868Z,14.57
2023-04-15T07:22:46.386Z,11.30
2023-04-15T07:25:12.900Z,13.50
2023-04-15T07:27:39.555Z,13.45
2023-04-15T07:30:06.412Z,11.35
2023-04-15T07:32:33.194Z,12.02
2023-04-15T07:34:59.837Z,14.15
2023-04-15T07:37:26.523Z,11.48
2023-04-15T07:39:53.592Z,11.98
2023-04-15T07:42:20.304Z,14.50
2023-04-15T07:44:46.775Z,11.82
2023-04-15T07:47:13.366Z,11.50
2023-04-15T07:49:39.834Z,10.70
2023-04-15T07:52:06.666Z,11.07
2023-04-15T07:54:33.222Z,11.95
2023-04-15T07:56:59.876Z,12.38
2023-04-15T07:59:27.722Z,9.48
2023-04-15T08:01:54.410Z,8.43
2023-04-15T08:04:21.055Z,8.95
2023-04-15T08:06:49.860Z,9.50
2023-04-15T08:09:17.431Z,9.55
2023-04-15T08:11:44.092Z,8.38
2023-04-15T08:14:10.805Z,10.82
2023-04-15T08:16:37.533Z,9.85
2023-04-15T08:19:04.736Z,9.73
2023-04-15T08:21:31.421Z,10.20
2023-04-15T08:23:57.959Z,7.82
2023-04-15T08:26:24.539Z,8.90
2023-04-15T08:28:51.407Z,9.35
2023-04-15T08:31:18.525Z,10.30
2023-04-15T08:33:45.780Z,9.98
2023-04-15T08:36:13.865Z,11.00
2023-04-15T08:38:40.547Z,10.18
2023-04-15T08:41:10.540Z,11.13
2023-04-15T08:43:42.315Z,7.78
2023-04-15T08:46:09.501Z,10.15
2023-04-15T08:48:38.480Z,9.95
2023-04-15T08:51:05.227Z,7.53
2023-04-15T08:53:31.857Z,8.63
2023-04-15T08:56:00.033Z,9.52
2023-04-15T08:58:26.673Z,10.27
2023-04-15T09:00:53.350Z,9.45
2023-04-15T09:03:20.258Z,7.68
2023-04-15T09:05:47.044Z,7.97
2023-04-15T09:08:13.658Z,6.47
2023-04-15T09:10:40.445Z,7.47
2023-04-15T09:13:07.035Z,9.23
2023-04-15T09:15:33.786Z,6.78
2023-04-15T09:18:00.614Z,7.07
2023-04-15T09:20:27.503Z,6.60
2023-04-15T09:22:54.435Z,6.65
2023-04-15T09:25:28.058Z,8.68
2023-04-15T09:27:59.080Z,6.70
2023-04-15T09:30:26.192Z,6.85
2023-04-15T09:32:53.650Z,6.93
2023-04-15T09:35:21.019Z,8.15
2023-04-15T09:37:47.699Z,11.88
2023-04-15T09:40:14.395Z,7.97
2023-04-15T09:42:56.411Z,8.70
2023-04-15T09:45:24.511Z,8.73
2023-04-15T09:47:52.744Z,9.07
2023-04-15T09:50:20.318Z,9.90
2023-04-15T09:52:47.128Z,7.88
2023-04-15T09:55:14.497Z,7.13
2023-04-15T09:57:41.864Z,8.00
2023-04-15T10:00:11.160Z,6.43
2023-04-15T10:02:39.999Z,6.38
2023-04-15T10:05:07.297Z,6.57
2023-04-15T10:07:34.164Z,6.55
2023-04-15T10:10:02.415Z,7.20
2023-04-15T10:12:29.496Z,6.43
2023-04-15T10:14:58.405Z,6.05
2023-04-15T10:17:26.739Z,7.22
2023-04-15T10:19:54.264Z,6.72
2023-04-15T10:22:21.523Z,5.22
2023-04-15T10:24:48.881Z,5.45
2023-04-15T10:27:16.227Z,6.70
2023-04-15T10:29:43.207Z,6.10
2023-04-15T10:32:10.818Z,6.20
2023-04-15T10:34:37.849Z,8.65
2023-04-15T10:37:04.816Z,7.13
2023-04-15T10:39:34.239Z,6.82
2023-04-15T10:42:13.765Z,7.18
2023-04-15T10:44:42.410Z,8.95
2023-04-15T10:47:19.072Z,7.80
2023-04-15T10:49:46.858Z,8.85
2023-04-15T10:52:14.317Z,9.82
2023-04-15T10:54:41.034Z,8.85
2023-04-15T10:57:09.465Z,6.63
2023-04-15T10:59:36.830Z,6.43
2023-04-15T11:02:05.957Z,7.90
2023-04-15T11:04:51.391Z,7.25
2023-04-15T11:07:36.983Z,7.65
2023-04-15T11:10:04.846Z,5.93
2023-04-15T11:12:35.784Z,5.78
2023-04-15T11:15:20.911Z,7.68
2023-04-15T11:20:16.030Z,6.90
2023-04-15T11:22:49.140Z,6.00
2023-04-15T11:25:25.023Z,6.03
2023-04-15T11:27:52.754Z,6.07
2023-04-15T11:30:23.126Z,7.90
2023-04-15T11:32:50.291Z,6.00
2023-04-15T11:35:17.761Z,7.22
2023-04-15T11:37:49.461Z,8.75
2023-04-15T11:40:17.643Z,9.95
2023-04-15T11:42:49.454Z,9.88
2023-04-15T11:45:16.674Z,10.20
2023-04-15T11:47:43.634Z,7.70
2023-04-15T11:50:20.094Z,8.50
2023-04-15T11:52:59.952Z,8.80
2023-04-15T11:55:26.593Z,10.65
2023-04-15T11:58:11.657Z,10.55
2023-04-15T12:03:14.452Z,11.63
2023-04-15T12:06:00.009Z,10.63
2023-04-15T12:08:27.288Z,11.35
2023-04-15T12:10:58.944Z,11.40
2023-04-15T12:13:27.762Z,10.18
2023-04-15T12:15:55.797Z,11.35
2023-04-15T12:18:25.786Z,9.05
2023-04-15T12:20:52.449Z,10.60
2023-04-15T12:23:22.102Z,12.10
2023-04-15T12:25:52.672Z,10.00
2023-04-15T12:28:19.411Z,10.10
2023-04-15T12:30:51.578Z,9.77
2023-04-15T12:33:27.771Z,9.85
2023-04-15T12:35:54.550Z,10.70
2023-04-15T12:38:21.176Z,11.60
2023-04-15T12:40:48.037Z,10.75
2023-04-15T12:43:14.469Z,9.82
2023-04-15T12:45:41.361Z,8.02
2023-04-15T12:48:09.304Z,10.77
2023-04-15T12:50:36.288Z,10.70
2023-04-15T12:53:03.718Z,9.35
2023-04-15T12:55:30.697Z,8.35
2023-04-15T12:57:57.464Z,8.35
2023-04-15T13:00:24.014Z,10.57
2023-04-15T13:02:50.666Z,10.00
2023-04-15T13:05:17.608Z,6.90
2023-04-15T13:07:44.237Z,10.77
2023-04-15T13:10:11.373Z,7.03
2023-04-15T13:12:37.892Z,9.52
2023-04-15T13:15:05.721Z,10.30
2023-04-15T13:17:32.476Z,9.45
2023-04-15T13:19:59.368Z,8.80
2023-04-15T13:22:26.011Z,9.40
2023-04-15T13:24:52.576Z,11.60
2023-04-15T13:27:19.148Z,8.75
2023-04-15T13:29:45.969Z,9.05
2023-04-15T13:32:12.495Z,6.88
2023-04-15T13:34:39.260Z,6.32
2023-04-15T13:37:09.253Z,7.93
2023-04-15T13:39:35.955Z,8.02
2023-04-15T13:42:03.142Z,7.30
2023-04-15T13:44:29.981Z,6.45
2023-04-15T13:46:56.462Z,6.93
2023-04-15T13:49:22.979Z,6.40
2023-04-15T13:51:49.409Z,6.20
2023-04-15T13:54:15.975Z,6.70
2023-04-15T13:56:42.540Z,7.95
2023-04-15T13:59:09.988Z,7.40
2023-04-15T14:01:36.466Z,9.18
2023-04-15T14:04:03.444Z,7.88
2023-04-15T14:06:31.713Z,6.40
2023-04-15T14:08:58.296Z,7.05
2023-04-15T14:11:25.188Z,6.15
2023-04-15T14:13:51.715Z,9.20
2023-04-15T14:16:18.228Z,8.48
2023-04-15T14:18:44.887Z,7.50
2023-04-15T14:21:11.347Z,9.00
2023-04-15T14:23:37.958Z,6.43
2023-04-15T14:26:04.555Z,6.88
2023-04-15T14:28:32.176Z,9.48
2023-04-15T14:30:58.752Z,11.48
2023-04-15T14:33:25.563Z,8.30
2023-04-15T14:35:52.034Z,7.30
2023-04-15T14:38:18.580Z,9.13
2023-04-15T14:40:45.334Z,9.98
2023-04-15T14:43:11.875Z,10.63
2023-04-15T14:45:40.693Z,7.90
2023-04-15T14:48:10.409Z,7.50
2023-04-15T14:50:36.994Z,7.75
2023-04-15T14:53:03.639Z,6.72
2023-04-15T14:55:30.188Z,8.45
2023-04-15T14:57:56.742Z,6.93
2023-04-15T15:00:23.266Z,10.60
2023-04-15T15:02:49.935Z,7.68
2023-04-15T15:05:16.674Z,12.55
2023-04-15T15:07:43.276Z,5.65
2023-04-15T15:10:09.839Z,6.15
2023-04-15T15:12:36.476Z,4.45
2023-04-15T15:15:09.212Z,5.38
2023-04-15T15:17:42.725Z,7.38
2023-04-15T15:20:09.422Z,4.10
2023-04-15T15:22:36.062Z,7.07
2023-04-15T15:25:03.174Z,7.03
2023-04-15T15:27:29.987Z,4.90
2023-04-15T15:29:56.699Z,5.38
2023-04-15T15:32:23.240Z,5.18
2023-04-15T15:34:49.820Z,6.00
2023-04-15T15:37:16.384Z,5.18
2023-04-15T15:39:43.055Z,8.75
2023-04-15T15:42:09.634Z,9.73
2023-04-15T15:44:38.441Z,10.77
2023-04-15T15:47:05.818Z,5.07
2023-04-15T15:49:32.308Z,10.05
2023-04-15T15:51:59.015Z,7.03
2023-04-15T15:54:25.664Z,8.52
2023-04-15T15:56:52.182Z,5.30
2023-04-15T15:59:19.828Z,10.07
2023-04-15T16:01:46.729Z,7.03
2023-04-15T16:04:13.444Z,8.18
2023-04-15T16:06:40.751Z,8.23
2023-04-15T16:09:07.311Z,5.10
2023-04-15T16:12:06.412Z,6.47
2023-04-15T16:14:33.044Z,7.05
2023-04-15T16:16:59.697Z,9.15
2023-04-15T16:19:26.469Z,9.63
2023-04-15T16:21:53.496Z,7.97
2023-04-15T16:24:20.082Z,6.35
2023-04-15T16:26:46.589Z,10.07
2023-04-15T16:29:21.345Z,10.52
2023-04-15T16:31:48.071Z,9.95
2023-04-15T16:34:15.914Z,8.32
2023-04-15T16:36:42.481Z,8.98
2023-04-15T16:39:08.996Z,7.53
2023-04-15T16:41:35.698Z,6.80
2023-04-15T16:44:03.427Z,9.00
2023-04-15T16:46:30.984Z,7.72
2023-04-15T16:49:40.989Z,8.07
2023-04-15T16:52:16.388Z,9.90
2023-04-15T16:54:43.065Z,10.00
2023-04-15T16:57:09.848Z,9.85
2023-04-15T16:59:36.437Z,7.28
2023-04-15T17:02:03.107Z,10.10
2023-04-15T17:04:30.052Z,6.93
2023-04-15T17:06:57.730Z,9.55
2023-04-15T17:09:24.320Z,5.60
2023-04-15T17:11:51.060Z,9.00
2023-04-15T17:14:17.657Z,7.32
2023-04-15T17:16:44.499Z,7.30
2023-04-15T17:19:11.475Z,8.77
2023-04-15T17:21:38.003Z,8.48
2023-04-15T17:24:06.209Z,7.97
2023-04-15T17:26:32.861Z,11.48
2023-04-15T17:28:59.382Z,8.25
2023-04-15T17:31:26.418Z,11.50
2023-04-15T17:34:02.136Z,6.78
2023-04-15T17:36:34.473Z,7.07
2023-04-15T17:39:01.075Z,9.25
2023-04-15T17:41:27.690Z,8.32
2023-04-15T17:43:54.217Z,6.47
2023-04-15T17:46:21.135Z,6.82
2023-04-15T17:48:48.064Z,8.85
2023-04-15T17:51:15.347Z,9.70
2023-04-15T17:53:42.177Z,11.77
2023-04-15T17:56:08.745Z,11.27
2023-04-15T17:58:38.430Z,9.15
2023-04-15T18:01:05.265Z,6.18
2023-04-15T18:03:32.243Z,7.82
2023-04-15T18:06:01.897Z,8.45
2023-04-15T18:08:28.768Z,8.82
2023-04-15T18:10:55.576Z,6.45
2023-04-15T18:13:22.228Z,6.60
2023-04-15T18:15:49.563Z,9.75
2023-04-15T18:18:16.098Z,10.90
2023-04-15T18:20:42.861Z,10.52
2023-04-15T18:23:09.380Z,11.90
2023-04-15T18:25:38.091Z,6.88
2023-04-15T18:28:05.458Z,10.63
2023-04-15T18:30:32.086Z,11.65
2023-04-15T18:32:58.612Z,10.05
2023-04-15T18:35:26.110Z,5.78
2023-04-15T18:37:53.169Z,9.73
2023-04-15T18:40:19.899Z,9.18
2023-04-15T18:42:46.417Z,8.20
2023-04-15T18:45:13.052Z,7.82
2023-04-15T18:47:39.602Z,9.15
2023-04-15T18:50:06.960Z,9.32
2023-04-15T18:52:34.328Z,11.77
2023-04-15T18:55:03.124Z,11.75
2023-04-15T18:57:35.897Z,9.48
2023-04-15T19:00:04.996Z,8.80
2023-04-15T19:02:31.868Z,11.55
2023-04-15T19:04:58.635Z,8.23
2023-04-15T19:07:25.300Z,11.15
2023-04-15T19:09:52.825Z,7.38
2023-04-15T19:12:19.421Z,7.78
2023-04-15T19:14:46.024Z,8.82
2023-04-15T19:17:12.518Z,8.52
2023-04-15T19:19:39.162Z,13.63
2023-04-15T19:22:06.386Z,8.40
2023-04-15T19:24:33.323Z,8.60
2023-04-15T19:27:00.134Z,9.07
2023-04-15T19:29:28.638Z,6.72
2023-04-15T19:31:55.641Z,9.27
2023-04-15T19:34:22.694Z,17.83
2023-04-15T19:36:49.415Z,10.13
2023-04-15T19:39:16.341Z,9.07
2023-04-15T19:41:44.342Z,6.70
2023-04-15T19:44:14.133Z,6.72
2023-04-15T19:46:43.708Z,9.70
2023-04-15T19:49:10.805Z,9.57
2023-04-15T19:51:40.707Z,10.13
2023-04-15T19:54:07.801Z,7.47
2023-04-15T19:56:34.590Z,10.57
2023-04-15T19:59:01.986Z,7.43
2023-04-15T20:01:28.831Z,9.02
2023-04-15T20:03:55.908Z,9.27
2023-04-15T20:06:23.007Z,9.27
2023-04-15T20:08:49.740Z,11.50
2023-04-15T20:11:16.249Z,9.98
2023-04-15T20:13:42.804Z,7.88
2023-04-15T20:16:09.516Z,6.53
2023-04-15T20:18:36.094Z,6.88
2023-04-15T20:21:02.595Z,8.60
2023-04-15T20:23:29.083Z,6.35
2023-04-15T20:25:55.611Z,5.97
2023-04-15T20:28:23.464Z,6.88
2023-04-15T20:30:49.914Z,7.50
2023-04-15T20:33:16.452Z,5.93
2023-04-15T20:35:42.983Z,10.02
2023-04-15T20:38:09.592Z,11.35
2023-04-15T20:40:36.491Z,10.98
2023-04-15T20:43:03.087Z,9.75
2023-04-15T20:45:29.630Z,8.38
2023-04-15T20:47:56.344Z,5.30
2023-04-15T20:50:22.958Z,5.30
2023-04-15T20:52:49.579Z,7.93
2023-04-15T20:55:16.264Z,6.20
2023-04-15T20:57:42.929Z,9.85
2023-04-15T21:00:10.947Z,10.65
2023-04-15T21:02:38.117Z,7.38
2023-04-15T21:05:04.981Z,8.32
2023-04-15T21:07:31.566Z,10.65
2023-04-15T21:09:58.051Z,8.02
2023-04-15T21:12:24.610Z,7.35
2023-04-15T21:14:51.301Z,8.38
2023-04-15T21:17:18.141Z,6.60
2023-04-15T21:19:44.932Z,10.35
2023-04-15T21:22:11.546Z,8.93
2023-04-15T21:24:38.619Z,7.90
2023-04-15T21:27:05.977Z,9.20
2023-04-15T21:29:32.521Z,5.50
2023-04-15T21:31:59.228Z,13.60
2023-04-15T21:34:25.917Z,6.38
2023-04-15T21:36:52.890Z,10.40
2023-04-15T21:39:21.503Z,6.70
2023-04-15T21:41:48.402Z,10.57
2023-04-15T21:44:15.240Z,6.93
2023-04-15T21:46:42.080Z,9.00
2023-04-15T21:49:13.056Z,7.15
2023-04-15T21:51:39.676Z,6.60
2023-04-15T21:54:06.358Z,7.63
2023-04-15T21:56:33.001Z,7.30
2023-04-15T21:58:59.694Z,6.75
2023-04-15T22:01:26.726Z,11.02
2023-04-15T22:03:53.730Z,6.93
2023-04-15T22:06:20.482Z,7.70
2023-04-15T22:08:56.036Z,6.78
2023-04-15T22:11:27.434Z,14.10
2023-04-15T22:13:57.052Z,6.50
2023-04-15T22:16:25.095Z,8.57
2023-04-15T22:18:52.092Z,6.40
2023-04-15T22:21:18.710Z,9.63
2023-04-15T22:23:48.403Z,7.40
2023-04-15T22:26:15.022Z,8.68
2023-04-15T22:28:41.987Z,5.22
2023-04-15T22:31:08.737Z,5.05
2023-04-15T22:33:35.521Z,7.53
2023-04-15T22:36:02.167Z,5.93
2023-04-15T22:38:28.699Z,5.03
2023-04-15T22:40:55.447Z,6.07
2023-04-15T22:43:22.098Z,5.20
2023-04-15T22:45:53.134Z,7.07
2023-04-15T22:48:19.894Z,7.20
2023-04-15T22:50:46.882Z,6.20
2023-04-15T22:53:14.771Z,5.45
2023-04-15T22:55:44.840Z,13.35
2023-04-15T22:58:11.512Z,6.30
2023-04-15T23:00:38.507Z,4.30
2023-04-15T23:03:05.256Z,6.95
2023-04-15T23:05:33.905Z,5.38
2023-04-15T23:08:00.704Z,5.82
2023-04-15T23:10:27.246Z,6.00
2023-04-15T23:12:54.087Z,8.43
2023-04-15T23:15:20.663Z,9.07
2023-04-15T23:17:47.401Z,3.90
2023-04-15T23:20:15.943Z,8.93
2023-04-15T23:22:43.196Z,5.55
2023-04-15T23:25:10.101Z,7.70
2023-04-15T23:27:38.107Z,9.70
2023-04-15T23:30:04.893Z,11.50
2023-04-15T23:32:31.739Z,5.55
2023-04-15T23:34:58.269Z,5.78
2023-04-15T23:37:24.951Z,3.38
2023-04-15T23:39:51.928Z,7.07
2023-04-15T23:42:18.665Z,3.90
2023-04-15T23:44:45.507Z,3.58
2023-04-15T23:47:12.039Z,5.10
2023-04-15T23:49:40.959Z,6.25
2023-04-15T23:52:07.989Z,3.80
2023-04-15T23:54:34.487Z,4.60
2023-04-15T23:57:01.298Z,4.13
2023-04-15T23:59:27.925Z,8.50
